createdAt,value
2019-05-18T00:01:06.802Z,83.38
2019-05-18T00:03:34.661Z,83.65
2019-05-18T00:06:02.545Z,83.48
2019-05-18T00:08:30.316Z,83.90
2019-05-18T00:10:58.175Z,83.56
2019-05-18T00:13:26.080Z,83.68
2019-05-18T00:15:53.915Z,83.66
2019-05-18T00:18:21.684Z,84.08
2019-05-18T00:20:49.510Z,83.86
2019-05-18T00:23:17.310Z,83.94
2019-05-18T00:25:45.220Z,83.86
2019-05-18T00:28:13.018Z,84.20
2019-05-18T00:30:40.889Z,84.71
2019-05-18T00:33:08.704Z,84.57
2019-05-18T00:35:36.545Z,84.30
2019-05-18T00:38:04.313Z,84.31
2019-05-18T00:40:32.100Z,84.14
2019-05-18T00:42:59.942Z,84.30
2019-05-18T00:45:27.797Z,84.57
2019-05-18T00:47:55.667Z,85.44
2019-05-18T00:50:23.468Z,85.11
2019-05-18T00:52:51.300Z,85.52
2019-05-18T00:55:19.222Z,85.59
2019-05-18T00:57:49.071Z,85.68
2019-05-18T01:00:17.454Z,85.40
2019-05-18T01:02:45.308Z,85.04
2019-05-18T01:05:13.178Z,85.05
2019-05-18T01:07:40.993Z,85.06
2019-05-18T01:10:09.496Z,85.10
2019-05-18T01:12:37.283Z,84.97
2019-05-18T01:15:06.258Z,84.91
2019-05-18T01:17:34.053Z,84.81
2019-05-18T01:20:01.827Z,84.86
2019-05-18T01:22:29.602Z,84.76
2019-05-18T01:24:57.378Z,84.95
2019-05-18T01:27:25.214Z,84.90
2019-05-18T01:29:53.038Z,84.76
2019-05-18T01:32:20.812Z,84.89
2019-05-18T01:34:48.575Z,84.53
2019-05-18T01:37:16.382Z,84.56
2019-05-18T01:39:44.158Z,84.60
2019-05-18T01:42:11.954Z,84.48
2019-05-18T01:44:39.753Z,84.35
2019-05-18T01:47:07.525Z,84.89
2019-05-18T01:49:35.538Z,84.75
2019-05-18T01:52:03.439Z,84.82
2019-05-18T01:54:31.481Z,84.21
2019-05-18T01:57:01.371Z,83.82
2019-05-18T01:59:28.973Z,84.27
2019-05-18T02:01:56.735Z,84.84
2019-05-18T02:04:24.522Z,85.11
2019-05-18T02:06:52.679Z,85.51
2019-05-18T02:09:20.490Z,85.65
2019-05-18T02:11:48.339Z,85.33
2019-05-18T02:14:16.183Z,85.32
2019-05-18T02:16:43.964Z,85.13
2019-05-18T02:19:11.743Z,85.05
2019-05-18T02:21:39.622Z,85.47
2019-05-18T02:24:07.433Z,85.38
2019-05-18T02:26:35.197Z,85.22
2019-05-18T02:29:03.005Z,85.24
2019-05-18T02:31:30.814Z,85.29
2019-05-18T02:33:58.650Z,85.49
2019-05-18T02:36:26.401Z,85.63
2019-05-18T02:38:54.188Z,85.57
2019-05-18T02:41:21.978Z,85.69
2019-05-18T02:43:49.782Z,85.61
2019-05-18T02:46:17.578Z,85.72
2019-05-18T02:48:50.158Z,85.81
2019-05-18T02:51:15.020Z,85.97
2019-05-18T02:53:42.825Z,85.98
2019-05-18T02:56:10.606Z,86.42
2019-05-18T02:58:38.418Z,86.54
2019-05-18T03:01:06.333Z,86.36
2019-05-18T03:03:34.171Z,86.27
2019-05-18T03:06:02.125Z,86.26
2019-05-18T03:08:29.940Z,86.01
2019-05-18T03:10:57.683Z,86.49
2019-05-18T03:13:25.596Z,86.69
2019-05-18T03:15:53.387Z,86.81
2019-05-18T03:18:21.139Z,87.00
2019-05-18T03:20:48.972Z,86.67
2019-05-18T03:23:16.763Z,87.06
2019-05-18T03:25:44.610Z,86.96
2019-05-18T03:28:12.394Z,86.85
2019-05-18T03:30:40.178Z,86.67
2019-05-18T03:33:07.957Z,86.47
2019-05-18T03:35:35.835Z,86.37
2019-05-18T03:38:03.604Z,86.24
2019-05-18T03:40:31.711Z,86.58
2019-05-18T03:42:59.571Z,86.44
2019-05-18T03:45:27.606Z,86.25
2019-05-18T03:47:55.394Z,85.98
2019-05-18T03:50:23.190Z,85.61
2019-05-18T03:52:51.015Z,85.80
2019-05-18T03:55:18.801Z,85.48
2019-05-18T03:57:46.613Z,84.81
2019-05-18T04:00:14.795Z,84.40
2019-05-18T04:02:42.545Z,84.19
2019-05-18T04:05:10.575Z,84.25
2019-05-18T04:07:38.385Z,84.29
2019-05-18T04:10:06.642Z,83.98
2019-05-18T04:12:34.477Z,83.87
2019-05-18T04:15:02.396Z,83.29
2019-05-18T04:17:30.319Z,82.96
2019-05-18T04:19:58.105Z,82.93
2019-05-18T04:22:25.895Z,82.65
2019-05-18T04:24:53.712Z,82.52
2019-05-18T04:27:21.529Z,82.29
2019-05-18T04:29:49.334Z,81.83
2019-05-18T04:32:17.143Z,81.83
2019-05-18T04:34:44.949Z,81.95
2019-05-18T04:37:12.788Z,82.36
2019-05-18T04:39:40.562Z,82.96
2019-05-18T04:42:08.353Z,82.91
2019-05-18T04:44:36.154Z,82.81
2019-05-18T04:47:03.914Z,82.87
2019-05-18T04:49:31.720Z,82.63
2019-05-18T04:51:59.496Z,82.35
2019-05-18T04:54:27.257Z,82.19
2019-05-18T04:56:55.093Z,81.48
2019-05-18T04:59:22.920Z,81.55
2019-05-18T05:01:50.992Z,80.89
2019-05-18T05:04:18.866Z,80.82
2019-05-18T05:06:46.661Z,80.14
2019-05-18T05:09:14.447Z,79.77
2019-05-18T05:11:42.287Z,79.12
2019-05-18T05:14:10.072Z,78.32
2019-05-18T05:16:37.922Z,77.32
2019-05-18T05:19:08.656Z,75.89
2019-05-18T05:21:35.496Z,74.31
2019-05-18T05:24:03.267Z,72.83
2019-05-18T05:26:31.097Z,71.43
2019-05-18T05:28:59.676Z,69.91
2019-05-18T05:31:27.498Z,68.42
2019-05-18T05:33:55.289Z,66.66
2019-05-18T05:36:23.099Z,64.90
2019-05-18T05:38:50.883Z,64.49
2019-05-18T05:41:18.732Z,63.42
2019-05-18T05:43:46.537Z,61.80
2019-05-18T05:46:14.315Z,60.31
2019-05-18T05:48:42.114Z,59.97
2019-05-18T05:51:10.131Z,58.75
2019-05-18T05:53:37.957Z,58.00
2019-05-18T05:56:05.757Z,55.11
2019-05-18T05:58:33.557Z,54.99
2019-05-18T06:01:01.320Z,54.81
2019-05-18T06:03:29.143Z,53.01
2019-05-18T06:05:56.951Z,52.23
2019-05-18T06:08:24.862Z,49.89
2019-05-18T06:10:52.667Z,49.86
2019-05-18T06:13:20.483Z,49.58
2019-05-18T06:15:48.282Z,46.56
2019-05-18T06:18:16.125Z,44.26
2019-05-18T06:20:51.658Z,42.16
2019-05-18T06:23:13.735Z,39.58
2019-05-18T06:25:41.608Z,39.53
2019-05-18T06:28:09.462Z,38.74
2019-05-18T06:30:37.331Z,38.18
2019-05-18T06:33:05.171Z,35.50
2019-05-18T06:35:33.001Z,35.08
2019-05-18T06:38:00.813Z,36.15
2019-05-18T06:40:28.607Z,33.75
2019-05-18T06:42:56.495Z,35.12
2019-05-18T06:45:24.332Z,34.08
2019-05-18T06:47:52.181Z,32.22
2019-05-18T06:50:28.494Z,30.68
2019-05-18T06:52:56.509Z,30.59
2019-05-18T06:55:25.407Z,29.73
2019-05-18T06:57:59.000Z,29.76
2019-05-18T07:00:26.873Z,30.12
2019-05-18T07:02:54.807Z,29.46
2019-05-18T07:05:22.777Z,29.82
2019-05-18T07:07:50.591Z,28.12
2019-05-18T07:10:18.535Z,27.57
2019-05-18T07:12:46.488Z,27.26
2019-05-18T07:15:15.670Z,26.94
2019-05-18T07:17:43.677Z,29.08
2019-05-18T07:20:11.901Z,28.44
2019-05-18T07:22:39.717Z,27.50
2019-05-18T07:25:08.313Z,25.88
2019-05-18T07:27:36.134Z,24.86
2019-05-18T07:30:04.552Z,24.58
2019-05-18T07:32:32.346Z,23.74
2019-05-18T07:35:00.290Z,23.66
2019-05-18T07:37:28.087Z,23.93
2019-05-18T07:39:56.025Z,22.61
2019-05-18T07:42:23.832Z,21.66
2019-05-18T07:44:51.655Z,21.62
2019-05-18T07:47:19.445Z,21.51
2019-05-18T07:49:47.412Z,21.57
2019-05-18T07:52:17.278Z,21.39
2019-05-18T07:54:45.007Z,24.49
2019-05-18T07:57:12.862Z,22.99
2019-05-18T07:59:40.719Z,21.78
2019-05-18T08:02:08.526Z,23.98
2019-05-18T08:04:39.708Z,25.16
2019-05-18T08:07:06.247Z,25.76
2019-05-18T08:09:34.017Z,24.60
2019-05-18T08:12:01.822Z,23.04
2019-05-18T08:14:29.807Z,20.97
2019-05-18T08:16:57.605Z,21.09
2019-05-18T08:19:25.416Z,19.40
2019-05-18T08:21:53.857Z,17.08
2019-05-18T08:24:21.723Z,17.43
2019-05-18T08:26:49.679Z,15.68
2019-05-18T08:29:17.629Z,19.77
2019-05-18T08:31:45.459Z,18.10
2019-05-18T08:34:13.492Z,17.88
2019-05-18T08:36:41.535Z,18.11
2019-05-18T08:39:09.363Z,20.33
2019-05-18T08:41:38.018Z,19.58
2019-05-18T08:44:05.790Z,17.62
2019-05-18T08:46:33.794Z,18.56
2019-05-18T08:49:01.845Z,21.74
2019-05-18T08:51:29.714Z,21.63
2019-05-18T08:53:57.517Z,20.27
2019-05-18T08:56:25.321Z,21.36
2019-05-18T08:58:53.098Z,23.67
2019-05-18T09:01:20.927Z,22.37
2019-05-18T09:03:48.726Z,21.17
2019-05-18T09:06:16.586Z,18.21
2019-05-18T09:08:44.384Z,16.19
2019-05-18T09:11:12.352Z,17.14
2019-05-18T09:13:40.131Z,20.00
2019-05-18T09:16:08.132Z,22.35
2019-05-18T09:18:35.945Z,19.66
2019-05-18T09:21:03.755Z,16.61
2019-05-18T09:23:31.530Z,16.34
2019-05-18T09:25:59.618Z,16.22
2019-05-18T09:28:27.504Z,15.39
2019-05-18T09:30:55.510Z,14.08
2019-05-18T09:33:23.303Z,14.19
2019-05-18T09:35:51.312Z,16.10
2019-05-18T09:38:19.083Z,15.35
2019-05-18T09:40:46.957Z,14.07
2019-05-18T09:43:14.846Z,15.60
2019-05-18T09:45:42.810Z,14.97
2019-05-18T09:48:10.621Z,13.03
2019-05-18T09:50:38.634Z,12.93
2019-05-18T09:53:06.474Z,12.51
2019-05-18T09:55:34.512Z,11.94
2019-05-18T09:58:02.459Z,11.58
2019-05-18T10:00:37.794Z,11.79
2019-05-18T10:03:00.416Z,14.24
2019-05-18T10:05:28.366Z,17.37
2019-05-18T10:07:56.539Z,19.71
2019-05-18T10:10:24.343Z,20.46
2019-05-18T10:12:52.299Z,17.59
2019-05-18T10:15:20.452Z,16.91
2019-05-18T10:17:48.459Z,14.63
2019-05-18T10:20:16.656Z,12.71
2019-05-18T10:22:55.435Z,12.22
2019-05-18T10:25:14.620Z,12.18
2019-05-18T10:27:42.480Z,13.53
2019-05-18T10:30:12.006Z,12.24
2019-05-18T10:32:39.801Z,11.33
2019-05-18T10:35:08.125Z,10.40
2019-05-18T10:37:35.943Z,11.53
2019-05-18T10:40:04.433Z,10.20
2019-05-18T10:42:32.405Z,10.07
2019-05-18T10:45:00.200Z,9.33
2019-05-18T10:47:28.256Z,9.32
2019-05-18T10:49:56.074Z,10.26
2019-05-18T10:52:24.065Z,10.63
2019-05-18T10:54:51.855Z,10.59
2019-05-18T10:57:19.672Z,11.84
2019-05-18T10:59:47.485Z,10.93
2019-05-18T11:02:15.259Z,10.62
2019-05-18T11:04:43.088Z,9.72
2019-05-18T11:07:11.075Z,10.06
2019-05-18T11:09:38.867Z,9.34
2019-05-18T11:12:06.942Z,9.00
2019-05-18T11:14:34.819Z,9.20
2019-05-18T11:17:02.895Z,9.10
2019-05-18T11:19:30.686Z,8.45
2019-05-18T11:21:58.504Z,8.85
2019-05-18T11:24:26.343Z,8.84
2019-05-18T11:26:54.366Z,8.76
2019-05-18T11:29:23.820Z,10.45
2019-05-18T11:31:51.941Z,11.01
2019-05-18T11:34:19.758Z,12.92
2019-05-18T11:36:47.741Z,11.34
2019-05-18T11:39:15.625Z,11.25
2019-05-18T11:41:43.412Z,10.84
2019-05-18T11:44:11.364Z,9.87
2019-05-18T11:46:39.412Z,9.92
2019-05-18T11:49:07.246Z,8.71
2019-05-18T11:51:35.039Z,8.16
2019-05-18T11:54:02.920Z,9.08
2019-05-18T11:56:30.794Z,11.01
2019-05-18T11:58:58.839Z,10.95
2019-05-18T12:01:26.665Z,10.00
2019-05-18T12:03:54.601Z,10.38
2019-05-18T12:06:22.431Z,8.92
2019-05-18T12:08:50.235Z,9.64
2019-05-18T12:11:18.022Z,10.14
2019-05-18T12:13:45.980Z,9.31
2019-05-18T12:16:17.185Z,9.24
2019-05-18T12:18:43.480Z,11.02
2019-05-18T12:21:11.302Z,10.49
2019-05-18T12:23:39.073Z,9.90
2019-05-18T12:26:06.907Z,9.79
2019-05-18T12:28:34.723Z,10.29
2019-05-18T12:31:02.518Z,9.44
2019-05-18T12:33:30.339Z,9.25
2019-05-18T12:35:58.137Z,10.44
2019-05-18T12:38:25.963Z,10.69
2019-05-18T12:40:54.098Z,10.14
2019-05-18T12:43:22.012Z,9.27
2019-05-18T12:45:49.822Z,8.75
2019-05-18T12:48:17.775Z,10.71
2019-05-18T12:50:45.776Z,15.53
2019-05-18T12:53:13.592Z,17.50
2019-05-18T12:55:41.648Z,19.97
2019-05-18T12:58:09.462Z,19.77
2019-05-18T13:00:37.423Z,16.42
2019-05-18T13:03:05.382Z,15.49
2019-05-18T13:05:33.370Z,13.50
2019-05-18T13:08:01.313Z,12.35
2019-05-18T13:10:29.157Z,11.93
2019-05-18T13:12:57.155Z,11.16
2019-05-18T13:15:25.336Z,11.61
2019-05-18T13:17:53.146Z,14.25
2019-05-18T13:20:21.293Z,14.88
2019-05-18T13:22:49.117Z,15.20
2019-05-18T13:25:17.619Z,17.27
2019-05-18T13:27:45.550Z,16.27
2019-05-18T13:30:19.394Z,15.86
2019-05-18T13:32:45.157Z,14.68
2019-05-18T13:35:16.560Z,13.46
2019-05-18T13:37:44.393Z,13.03
2019-05-18T13:40:12.908Z,13.02
2019-05-18T13:42:40.728Z,13.16
2019-05-18T13:45:09.967Z,12.61
2019-05-18T13:47:37.808Z,12.21
2019-05-18T13:50:07.235Z,13.28
2019-05-18T13:52:35.213Z,15.48
2019-05-18T13:55:04.995Z,18.47
2019-05-18T13:57:33.099Z,21.29
2019-05-18T14:00:01.045Z,24.49
2019-05-18T14:02:28.818Z,25.54
2019-05-18T14:04:56.761Z,26.90
2019-05-18T14:07:24.572Z,28.41
2019-05-18T14:09:52.367Z,29.29
2019-05-18T14:12:20.156Z,30.10
2019-05-18T14:14:47.907Z,31.14
2019-05-18T14:17:15.839Z,32.20
2019-05-18T14:19:44.168Z,32.69
2019-05-18T14:22:11.991Z,33.57
2019-05-18T14:24:39.806Z,34.17
2019-05-18T14:27:07.771Z,34.95
2019-05-18T14:29:35.744Z,35.33
2019-05-18T14:32:03.731Z,35.71
2019-05-18T14:34:31.540Z,34.69
2019-05-18T14:36:59.579Z,34.42
2019-05-18T14:39:27.440Z,35.85
2019-05-18T14:41:55.244Z,35.87
2019-05-18T14:44:23.289Z,35.85
2019-05-18T14:46:51.066Z,36.58
2019-05-18T14:49:19.054Z,36.77
2019-05-18T14:51:46.857Z,37.37
2019-05-18T14:54:14.700Z,37.25
2019-05-18T14:56:42.680Z,37.41
2019-05-18T14:59:10.547Z,37.48
2019-05-18T15:01:38.497Z,35.89
2019-05-18T15:04:06.340Z,36.24
2019-05-18T15:06:35.584Z,35.97
2019-05-18T15:09:05.229Z,35.95
2019-05-18T15:11:33.186Z,36.05
2019-05-18T15:14:01.043Z,36.38
2019-05-18T15:16:29.025Z,36.84
2019-05-18T15:18:56.816Z,36.32
2019-05-18T15:21:24.755Z,36.57
2019-05-18T15:23:52.558Z,35.92
2019-05-18T15:26:20.465Z,36.13
2019-05-18T15:28:48.269Z,37.40
2019-05-18T15:31:16.460Z,37.33
2019-05-18T15:33:44.277Z,38.12
2019-05-18T15:36:12.062Z,37.82
2019-05-18T15:38:39.865Z,37.82
2019-05-18T15:41:07.685Z,37.66
2019-05-18T15:43:35.546Z,38.11
2019-05-18T15:46:03.516Z,38.34
2019-05-18T15:48:31.359Z,38.53
2019-05-18T15:50:59.446Z,38.71
2019-05-18T15:53:27.364Z,39.05
2019-05-18T15:56:05.424Z,39.76
2019-05-18T15:58:25.205Z,40.04
2019-05-18T16:00:53.085Z,40.32
2019-05-18T16:03:21.229Z,41.13
2019-05-18T16:05:49.487Z,41.07
2019-05-18T16:08:17.431Z,41.46
2019-05-18T16:10:45.457Z,41.60
2019-05-18T16:13:13.542Z,41.70
2019-05-18T16:15:41.551Z,41.86
2019-05-18T16:18:09.329Z,42.36
2019-05-18T16:20:37.308Z,41.86
2019-05-18T16:23:05.261Z,41.70
2019-05-18T16:25:33.117Z,41.67
2019-05-18T16:28:01.111Z,42.17
2019-05-18T16:30:29.023Z,42.37
2019-05-18T16:32:57.056Z,42.19
2019-05-18T16:35:26.252Z,42.16
2019-05-18T16:37:56.913Z,42.57
2019-05-18T16:40:24.709Z,42.42
2019-05-18T16:42:52.531Z,42.14
2019-05-18T16:45:20.514Z,42.13
2019-05-18T16:47:51.077Z,42.10
2019-05-18T16:50:19.097Z,42.52
2019-05-18T16:52:46.906Z,43.17
2019-05-18T16:55:16.244Z,43.42
2019-05-18T16:57:44.036Z,43.33
2019-05-18T17:00:16.030Z,42.95
2019-05-18T17:02:42.493Z,42.51
2019-05-18T17:05:10.637Z,42.17
2019-05-18T17:07:38.446Z,42.73
2019-05-18T17:10:07.063Z,43.08
2019-05-18T17:12:34.871Z,43.45
2019-05-18T17:15:02.893Z,43.80
2019-05-18T17:17:30.672Z,44.08
2019-05-18T17:19:58.631Z,44.03
2019-05-18T17:22:26.407Z,44.36
2019-05-18T17:24:54.226Z,44.43
2019-05-18T17:27:22.056Z,44.47
2019-05-18T17:29:50.025Z,44.49
2019-05-18T17:32:17.878Z,44.63
2019-05-18T17:34:45.780Z,44.66
2019-05-18T17:37:13.566Z,44.96
2019-05-18T17:39:41.439Z,45.13
2019-05-18T17:42:09.358Z,45.69
2019-05-18T17:44:37.130Z,45.97
2019-05-18T17:47:06.478Z,46.28
2019-05-18T17:49:34.273Z,46.36
2019-05-18T17:52:02.093Z,46.62
2019-05-18T17:54:30.983Z,46.84
2019-05-18T17:57:08.166Z,47.05
2019-05-18T17:59:28.497Z,47.32
2019-05-18T18:01:56.303Z,47.38
2019-05-18T18:04:24.138Z,47.69
2019-05-18T18:06:54.459Z,48.11
2019-05-18T18:09:24.206Z,48.38
2019-05-18T18:11:52.128Z,48.75
2019-05-18T18:14:19.982Z,48.93
2019-05-18T18:16:47.852Z,48.95
2019-05-18T18:19:15.691Z,49.32
2019-05-18T18:21:43.706Z,49.30
2019-05-18T18:24:12.877Z,49.51
2019-05-18T18:26:40.775Z,49.91
2019-05-18T18:29:08.713Z,50.15
2019-05-18T18:31:36.551Z,50.02
2019-05-18T18:34:04.505Z,50.22
2019-05-18T18:36:32.405Z,50.52
2019-05-18T18:39:00.188Z,50.96
2019-05-18T18:41:28.143Z,51.35
2019-05-18T18:43:56.091Z,51.57
2019-05-18T18:46:24.028Z,51.48
2019-05-18T18:48:53.089Z,51.66
2019-05-18T18:51:20.960Z,52.11
2019-05-18T18:53:48.892Z,52.21
2019-05-18T18:56:16.757Z,52.30
2019-05-18T18:58:44.656Z,52.66
2019-05-18T19:01:12.618Z,53.02
2019-05-18T19:03:40.560Z,53.36
2019-05-18T19:06:08.476Z,53.95
2019-05-18T19:08:36.431Z,54.29
2019-05-18T19:11:04.278Z,54.58
2019-05-18T19:13:32.079Z,54.80
2019-05-18T19:16:02.392Z,55.17
2019-05-18T19:18:30.219Z,55.45
2019-05-18T19:20:58.029Z,55.72
2019-05-18T19:23:25.869Z,56.02
2019-05-18T19:25:53.704Z,56.36
2019-05-18T19:28:21.562Z,56.71
2019-05-18T19:30:49.419Z,57.02
2019-05-18T19:33:17.209Z,57.43
2019-05-18T19:35:45.142Z,57.66
2019-05-18T19:38:13.042Z,57.68
2019-05-18T19:40:40.837Z,58.02
2019-05-18T19:43:08.742Z,58.22
2019-05-18T19:45:36.547Z,58.50
2019-05-18T19:48:04.397Z,58.71
2019-05-18T19:50:32.336Z,58.99
2019-05-18T19:53:01.608Z,59.25
2019-05-18T19:55:29.421Z,59.66
2019-05-18T19:58:08.187Z,60.10
2019-05-18T20:00:27.083Z,60.51
2019-05-18T20:02:54.915Z,60.66
2019-05-18T20:05:22.747Z,60.82
2019-05-18T20:07:50.573Z,60.93
2019-05-18T20:10:18.542Z,61.32
2019-05-18T20:12:46.348Z,61.77
2019-05-18T20:15:14.551Z,62.09
2019-05-18T20:17:42.398Z,62.15
2019-05-18T20:20:10.741Z,62.40
2019-05-18T20:22:38.567Z,62.86
2019-05-18T20:25:07.209Z,63.10
2019-05-18T20:27:35.155Z,63.38
2019-05-18T20:30:03.526Z,63.87
2019-05-18T20:32:31.415Z,63.98
2019-05-18T20:34:59.339Z,64.13
2019-05-18T20:37:27.175Z,64.65
2019-05-18T20:39:55.048Z,64.65
2019-05-18T20:42:22.818Z,65.00
2019-05-18T20:44:50.656Z,65.30
2019-05-18T20:47:18.499Z,65.53
2019-05-18T20:49:46.369Z,65.78
2019-05-18T20:52:14.260Z,66.06
2019-05-18T20:54:42.075Z,66.36
2019-05-18T20:57:09.877Z,66.44
2019-05-18T20:59:38.520Z,66.65
2019-05-18T21:02:06.455Z,66.77
2019-05-18T21:04:34.254Z,67.01
2019-05-18T21:07:02.076Z,66.80
2019-05-18T21:09:29.945Z,67.01
2019-05-18T21:11:57.811Z,67.05
2019-05-18T21:14:25.625Z,67.04
2019-05-18T21:16:53.429Z,67.28
2019-05-18T21:19:21.248Z,67.08
2019-05-18T21:21:49.046Z,67.43
2019-05-18T21:24:16.842Z,67.74
2019-05-18T21:26:44.649Z,68.08
2019-05-18T21:29:12.440Z,68.48
2019-05-18T21:31:40.285Z,68.33
2019-05-18T21:34:08.120Z,68.20
2019-05-18T21:36:35.924Z,68.56
2019-05-18T21:39:05.117Z,68.47
2019-05-18T21:41:33.010Z,68.80
2019-05-18T21:44:00.936Z,68.68
2019-05-18T21:46:28.809Z,68.31
2019-05-18T21:48:56.624Z,68.69
2019-05-18T21:51:24.406Z,68.66
2019-05-18T21:53:52.192Z,69.10
2019-05-18T21:56:19.976Z,69.25
2019-05-18T21:58:47.755Z,69.37
2019-05-18T22:01:15.803Z,69.48
2019-05-18T22:03:47.868Z,69.47
2019-05-18T22:06:13.353Z,69.83
2019-05-18T22:08:41.212Z,70.28
2019-05-18T22:11:09.040Z,69.81
2019-05-18T22:13:36.840Z,70.38
2019-05-18T22:16:04.692Z,70.44
2019-05-18T22:18:32.538Z,70.72
2019-05-18T22:21:00.370Z,70.76
2019-05-18T22:23:28.150Z,70.59
2019-05-18T22:25:57.134Z,70.86
2019-05-18T22:28:25.134Z,70.83
2019-05-18T22:30:52.967Z,70.75
2019-05-18T22:33:20.782Z,70.86
2019-05-18T22:35:48.600Z,70.38
2019-05-18T22:38:16.409Z,70.46
2019-05-18T22:40:44.200Z,70.72
2019-05-18T22:43:12.008Z,70.35
2019-05-18T22:45:39.790Z,70.66
2019-05-18T22:48:07.703Z,70.65
2019-05-18T22:50:35.460Z,70.70
2019-05-18T22:53:03.307Z,70.99
2019-05-18T22:55:31.064Z,70.99
2019-05-18T22:57:59.026Z,71.14
2019-05-18T23:00:26.826Z,71.31
2019-05-18T23:02:54.664Z,71.34
2019-05-18T23:05:22.459Z,71.54
2019-05-18T23:07:50.293Z,71.24
2019-05-18T23:10:18.112Z,71.59
2019-05-18T23:12:45.953Z,71.70
2019-05-18T23:15:14.058Z,71.62
2019-05-18T23:17:45.054Z,71.68
2019-05-18T23:20:13.117Z,71.90
2019-05-18T23:22:40.918Z,71.96
2019-05-18T23:25:09.029Z,72.15
2019-05-18T23:27:36.839Z,71.90
2019-05-18T23:30:04.997Z,71.60
2019-05-18T23:32:32.824Z,71.88
2019-05-18T23:35:00.723Z,72.00
2019-05-18T23:37:28.567Z,71.95
2019-05-18T23:40:00.685Z,71.86
2019-05-18T23:42:28.525Z,71.89
2019-05-18T23:44:56.332Z,72.08
2019-05-18T23:47:24.135Z,71.89
2019-05-18T23:49:52.006Z,72.14
2019-05-18T23:52:19.871Z,72.44
2019-05-18T23:54:47.673Z,72.25
2019-05-18T23:57:15.475Z,72.22
2019-05-18T23:59:43.317Z,72.08
